sensor_id;sensor_type;location;lat;lon;timestamp;P1;durP1;ratioP1;P2;durP2;ratioP2
32501;SDS011;18952;52.516;13.460;2023-02-28T00:01:10;10.32;;;5.63;;
32501;SDS011;18952;52.516;13.460;2023-02-28T00:03:40;11.15;;;6.22;;
32501;SDS011;18952;52.516;13.460;2023-02-28T00:06:07;12.98;;;5.63;;
32501;SDS011;18952;52.516;13.460;2023-02-28T00:08:35;11.20;;;5.75;;
32501;SDS011;18952;52.516;13.460;2023-02-28T00:11:03;12.23;;;5.45;;
32501;SDS011;18952;52.516;13.460;2023-02-28T00:13:31;11.07;;;5.60;;
32501;SDS011;18952;52.516;13.460;2023-02-28T00:16:12;14.93;;;6.40;;
32501;SDS011;18952;52.516;13.460;2023-02-28T00:18:44;9.98;;;4.97;;
32501;SDS011;18952;52.516;13.460;2023-02-28T00:21:12;13.60;;;6.00;;
32501;SDS011;18952;52.516;13.460;2023-02-28T00:23:41;11.85;;;5.35;;
32501;SDS011;18952;52.516;13.460;2023-02-28T00:26:14;11.18;;;5.93;;
32501;SDS011;18952;52.516;13.460;2023-02-28T00:28:41;9.85;;;5.70;;
32501;SDS011;18952;52.516;13.460;2023-02-28T00:31:08;10.55;;;5.50;;
32501;SDS011;18952;52.516;13.460;2023-02-28T00:33:35;11.40;;;5.70;;
32501;SDS011;18952;52.516;13.460;2023-02-28T00:36:06;13.32;;;5.57;;
32501;SDS011;18952;52.516;13.460;2023-02-28T00:38:35;7.55;;;5.40;;
32501;SDS011;18952;52.516;13.460;2023-02-28T00:41:02;10.48;;;6.05;;
32501;SDS011;18952;52.516;13.460;2023-02-28T00:43:39;9.20;;;5.72;;
32501;SDS011;18952;52.516;13.460;2023-02-28T00:46:06;12.43;;;5.80;;
32501;SDS011;18952;52.516;13.460;2023-02-28T00:48:33;9.25;;;5.20;;
32501;SDS011;18952;52.516;13.460;2023-02-28T00:51:00;11.73;;;5.50;;
32501;SDS011;18952;52.516;13.460;2023-02-28T00:53:28;10.27;;;5.63;;
32501;SDS011;18952;52.516;13.460;2023-02-28T00:55:55;11.50;;;5.38;;
32501;SDS011;18952;52.516;13.460;2023-02-28T00:58:22;11.48;;;5.63;;
32501;SDS011;18952;52.516;13.460;2023-02-28T01:00:49;9.32;;;5.63;;
32501;SDS011;18952;52.516;13.460;2023-02-28T01:03:17;11.05;;;6.57;;
32501;SDS011;18952;52.516;13.460;2023-02-28T01:05:45;10.95;;;6.28;;
32501;SDS011;18952;52.516;13.460;2023-02-28T01:08:12;8.95;;;6.10;;
32501;SDS011;18952;52.516;13.460;2023-02-28T01:10:40;12.65;;;6.90;;
32501;SDS011;18952;52.516;13.460;2023-02-28T01:13:07;10.85;;;5.95;;
32501;SDS011;18952;52.516;13.460;2023-02-28T01:15:34;14.10;;;6.50;;
32501;SDS011;18952;52.516;13.460;2023-02-28T01:18:15;10.70;;;6.43;;
32501;SDS011;18952;52.516;13.460;2023-02-28T01:20:42;13.20;;;6.20;;
32501;SDS011;18952;52.516;13.460;2023-02-28T01:23:09;17.42;;;7.20;;
32501;SDS011;18952;52.516;13.460;2023-02-28T01:25:36;13.98;;;6.50;;
32501;SDS011;18952;52.516;13.460;2023-02-28T01:28:03;12.65;;;6.90;;
32501;SDS011;18952;52.516;13.460;2023-02-28T01:30:31;9.63;;;6.60;;
32501;SDS011;18952;52.516;13.460;2023-02-28T01:32:58;9.75;;;6.13;;
32501;SDS011;18952;52.516;13.460;2023-02-28T01:35:27;11.27;;;6.47;;
32501;SDS011;18952;52.516;13.460;2023-02-28T01:37:54;13.10;;;6.35;;
32501;SDS011;18952;52.516;13.460;2023-02-28T01:40:26;10.48;;;6.22;;
32501;SDS011;18952;52.516;13.460;2023-02-28T01:42:53;11.55;;;6.70;;
32501;SDS011;18952;52.516;13.460;2023-02-28T01:47:54;10.13;;;6.35;;
32501;SDS011;18952;52.516;13.460;2023-02-28T01:50:25;12.38;;;7.43;;
32501;SDS011;18952;52.516;13.460;2023-02-28T01:52:58;12.32;;;6.63;;
32501;SDS011;18952;52.516;13.460;2023-02-28T01:55:28;14.38;;;6.80;;
32501;SDS011;18952;52.516;13.460;2023-02-28T01:57:56;13.52;;;6.95;;
32501;SDS011;18952;52.516;13.460;2023-02-28T02:00:26;13.80;;;6.95;;
32501;SDS011;18952;52.516;13.460;2023-02-28T02:02:56;13.60;;;6.95;;
32501;SDS011;18952;52.516;13.460;2023-02-28T02:05:26;13.30;;;7.43;;
32501;SDS011;18952;52.516;13.460;2023-02-28T02:07:55;12.10;;;7.15;;
32501;SDS011;18952;52.516;13.460;2023-02-28T02:13:25;14.00;;;7.07;;
32501;SDS011;18952;52.516;13.460;2023-02-28T02:24:43;10.23;;;7.00;;
32501;SDS011;18952;52.516;13.460;2023-02-28T02:27:20;13.93;;;7.38;;
32501;SDS011;18952;52.516;13.460;2023-02-28T02:33:06;11.82;;;7.90;;
32501;SDS011;18952;52.516;13.460;2023-02-28T02:36:12;11.45;;;7.50;;
32501;SDS011;18952;52.516;13.460;2023-02-28T02:41:26;11.82;;;7.82;;
32501;SDS011;18952;52.516;13.460;2023-02-28T02:44:35;15.77;;;7.70;;
32501;SDS011;18952;52.516;13.460;2023-02-28T02:47:03;13.63;;;8.07;;
32501;SDS011;18952;52.516;13.460;2023-02-28T02:49:36;13.10;;;8.27;;
32501;SDS011;18952;52.516;13.460;2023-02-28T02:52:07;15.45;;;8.38;;
32501;SDS011;18952;52.516;13.460;2023-02-28T02:54:38;13.55;;;7.95;;
32501;SDS011;18952;52.516;13.460;2023-02-28T02:57:11;13.68;;;8.50;;
32501;SDS011;18952;52.516;13.460;2023-02-28T02:59:40;12.10;;;8.05;;
32501;SDS011;18952;52.516;13.460;2023-02-28T03:02:10;17.95;;;8.70;;
32501;SDS011;18952;52.516;13.460;2023-02-28T03:04:42;16.33;;;8.02;;
32501;SDS011;18952;52.516;13.460;2023-02-28T03:07:12;14.68;;;8.73;;
32501;SDS011;18952;52.516;13.460;2023-02-28T03:09:39;14.35;;;8.63;;
32501;SDS011;18952;52.516;13.460;2023-02-28T03:12:06;11.27;;;8.15;;
32501;SDS011;18952;52.516;13.460;2023-02-28T03:14:59;17.17;;;8.85;;
32501;SDS011;18952;52.516;13.460;2023-02-28T03:18:08;17.95;;;9.02;;
32501;SDS011;18952;52.516;13.460;2023-02-28T03:20:49;13.98;;;8.48;;
32501;SDS011;18952;52.516;13.460;2023-02-28T03:23:32;18.60;;;9.20;;
32501;SDS011;18952;52.516;13.460;2023-02-28T03:26:24;13.00;;;8.50;;
32501;SDS011;18952;52.516;13.460;2023-02-28T03:31:38;16.13;;;8.90;;
32501;SDS011;18952;52.516;13.460;2023-02-28T03:36:59;14.00;;;8.68;;
32501;SDS011;18952;52.516;13.460;2023-02-28T03:39:53;17.30;;;8.85;;
32501;SDS011;18952;52.516;13.460;2023-02-28T03:42:31;12.82;;;9.00;;
32501;SDS011;18952;52.516;13.460;2023-02-28T03:45:00;14.88;;;8.63;;
32501;SDS011;18952;52.516;13.460;2023-02-28T03:47:41;16.40;;;9.20;;
32501;SDS011;18952;52.516;13.460;2023-02-28T03:53:03;16.50;;;8.82;;
32501;SDS011;18952;52.516;13.460;2023-02-28T03:55:42;13.07;;;9.13;;
32501;SDS011;18952;52.516;13.460;2023-02-28T04:01:04;15.18;;;9.38;;
32501;SDS011;18952;52.516;13.460;2023-02-28T04:03:41;16.35;;;8.70;;
32501;SDS011;18952;52.516;13.460;2023-02-28T04:06:13;15.15;;;9.15;;
32501;SDS011;18952;52.516;13.460;2023-02-28T04:08:43;16.25;;;8.75;;
32501;SDS011;18952;52.516;13.460;2023-02-28T04:11:18;15.05;;;8.90;;
32501;SDS011;18952;52.516;13.460;2023-02-28T04:16:13;16.20;;;9.13;;
32501;SDS011;18952;52.516;13.460;2023-02-28T04:18:58;19.33;;;9.85;;
32501;SDS011;18952;52.516;13.460;2023-02-28T04:21:25;16.63;;;10.52;;
32501;SDS011;18952;52.516;13.460;2023-02-28T04:23:53;19.42;;;11.57;;
32501;SDS011;18952;52.516;13.460;2023-02-28T04:26:20;16.83;;;9.50;;
32501;SDS011;18952;52.516;13.460;2023-02-28T04:28:47;20.27;;;10.00;;
32501;SDS011;18952;52.516;13.460;2023-02-28T04:31:14;22.00;;;11.18;;
32501;SDS011;18952;52.516;13.460;2023-02-28T04:33:41;17.40;;;9.63;;
32501;SDS011;18952;52.516;13.460;2023-02-28T04:36:07;20.70;;;10.98;;
32501;SDS011;18952;52.516;13.460;2023-02-28T04:38:36;19.35;;;9.70;;
32501;SDS011;18952;52.516;13.460;2023-02-28T04:41:04;20.00;;;9.93;;
32501;SDS011;18952;52.516;13.460;2023-02-28T04:43:31;17.40;;;9.18;;
32501;SDS011;18952;52.516;13.460;2023-02-28T04:46:00;16.30;;;10.05;;
32501;SDS011;18952;52.516;13.460;2023-02-28T04:48:29;16.02;;;10.13;;
32501;SDS011;18952;52.516;13.460;2023-02-28T04:51:01;19.10;;;10.30;;
32501;SDS011;18952;52.516;13.460;2023-02-28T04:53:33;19.77;;;10.40;;
32501;SDS011;18952;52.516;13.460;2023-02-28T04:56:00;17.60;;;10.10;;
32501;SDS011;18952;52.516;13.460;2023-02-28T04:58:28;18.73;;;10.43;;
32501;SDS011;18952;52.516;13.460;2023-02-28T05:01:00;17.20;;;10.40;;
32501;SDS011;18952;52.516;13.460;2023-02-28T05:03:28;18.25;;;10.70;;
32501;SDS011;18952;52.516;13.460;2023-02-28T05:05:55;20.15;;;10.90;;
32501;SDS011;18952;52.516;13.460;2023-02-28T05:08:22;21.63;;;11.38;;
32501;SDS011;18952;52.516;13.460;2023-02-28T05:10:49;21.38;;;11.80;;
32501;SDS011;18952;52.516;13.460;2023-02-28T05:13:16;24.95;;;12.70;;
32501;SDS011;18952;52.516;13.460;2023-02-28T05:15:43;24.20;;;12.60;;
32501;SDS011;18952;52.516;13.460;2023-02-28T05:18:10;30.27;;;13.55;;
32501;SDS011;18952;52.516;13.460;2023-02-28T05:20:36;24.08;;;12.60;;
32501;SDS011;18952;52.516;13.460;2023-02-28T05:23:03;25.70;;;12.50;;
32501;SDS011;18952;52.516;13.460;2023-02-28T05:25:30;35.15;;;13.40;;
32501;SDS011;18952;52.516;13.460;2023-02-28T05:27:57;25.98;;;13.07;;
32501;SDS011;18952;52.516;13.460;2023-02-28T05:30:23;26.13;;;13.48;;
32501;SDS011;18952;52.516;13.460;2023-02-28T05:32:51;24.65;;;11.82;;
32501;SDS011;18952;52.516;13.460;2023-02-28T05:35:17;24.23;;;12.05;;
32501;SDS011;18952;52.516;13.460;2023-02-28T05:37:44;27.45;;;12.65;;
32501;SDS011;18952;52.516;13.460;2023-02-28T05:40:11;22.60;;;11.60;;
32501;SDS011;18952;52.516;13.460;2023-02-28T05:42:38;19.30;;;11.45;;
32501;SDS011;18952;52.516;13.460;2023-02-28T05:45:05;21.30;;;11.27;;
32501;SDS011;18952;52.516;13.460;2023-02-28T05:47:33;20.40;;;11.35;;
32501;SDS011;18952;52.516;13.460;2023-02-28T05:50:00;16.40;;;10.57;;
32501;SDS011;18952;52.516;13.460;2023-02-28T05:52:27;18.95;;;11.10;;
32501;SDS011;18952;52.516;13.460;2023-02-28T05:54:55;20.77;;;11.35;;
32501;SDS011;18952;52.516;13.460;2023-02-28T05:57:22;28.55;;;11.43;;
32501;SDS011;18952;52.516;13.460;2023-02-28T05:59:50;19.63;;;11.00;;
32501;SDS011;18952;52.516;13.460;2023-02-28T06:02:17;25.35;;;12.55;;
32501;SDS011;18952;52.516;13.460;2023-02-28T06:04:44;25.58;;;12.23;;
32501;SDS011;18952;52.516;13.460;2023-02-28T06:07:11;29.60;;;13.30;;
32501;SDS011;18952;52.516;13.460;2023-02-28T06:09:38;26.90;;;13.32;;
32501;SDS011;18952;52.516;13.460;2023-02-28T06:12:06;24.75;;;12.48;;
32501;SDS011;18952;52.516;13.460;2023-02-28T06:14:33;22.95;;;12.50;;
32501;SDS011;18952;52.516;13.460;2023-02-28T06:17:01;23.92;;;11.73;;
32501;SDS011;18952;52.516;13.460;2023-02-28T06:19:28;22.63;;;12.10;;
32501;SDS011;18952;52.516;13.460;2023-02-28T06:21:55;26.15;;;11.98;;
32501;SDS011;18952;52.516;13.460;2023-02-28T06:24:23;30.20;;;12.13;;
32501;SDS011;18952;52.516;13.460;2023-02-28T06:26:51;21.50;;;11.57;;
32501;SDS011;18952;52.516;13.460;2023-02-28T06:29:18;22.60;;;11.70;;
32501;SDS011;18952;52.516;13.460;2023-02-28T06:31:45;30.50;;;15.57;;
32501;SDS011;18952;52.516;13.460;2023-02-28T06:34:13;22.38;;;13.45;;
32501;SDS011;18952;52.516;13.460;2023-02-28T06:36:40;22.35;;;11.20;;
32501;SDS011;18952;52.516;13.460;2023-02-28T06:39:08;22.17;;;11.63;;
32501;SDS011;18952;52.516;13.460;2023-02-28T06:48:07;20.30;;;10.80;;
32501;SDS011;18952;52.516;13.460;2023-02-28T06:50:34;22.90;;;11.07;;
32501;SDS011;18952;52.516;13.460;2023-02-28T06:53:04;29.13;;;11.30;;
32501;SDS011;18952;52.516;13.460;2023-02-28T06:55:31;25.48;;;12.25;;
32501;SDS011;18952;52.516;13.460;2023-02-28T06:57:58;23.75;;;12.13;;
32501;SDS011;18952;52.516;13.460;2023-02-28T07:00:25;28.25;;;12.45;;
32501;SDS011;18952;52.516;13.460;2023-02-28T07:02:52;36.47;;;13.98;;
32501;SDS011;18952;52.516;13.460;2023-02-28T07:05:19;39.83;;;12.55;;
32501;SDS011;18952;52.516;13.460;2023-02-28T07:07:45;31.13;;;12.38;;
32501;SDS011;18952;52.516;13.460;2023-02-28T07:10:12;31.83;;;14.25;;
32501;SDS011;18952;52.516;13.460;2023-02-28T07:12:39;43.58;;;15.95;;
32501;SDS011;18952;52.516;13.460;2023-02-28T07:15:06;33.45;;;14.10;;
32501;SDS011;18952;52.516;13.460;2023-02-28T07:17:33;37.47;;;14.85;;
32501;SDS011;18952;52.516;13.460;2023-02-28T07:20:01;40.78;;;16.75;;
32501;SDS011;18952;52.516;13.460;2023-02-28T07:22:27;42.17;;;15.65;;
32501;SDS011;18952;52.516;13.460;2023-02-28T07:24:54;43.45;;;15.25;;
32501;SDS011;18952;52.516;13.460;2023-02-28T07:27:21;29.52;;;14.38;;
32501;SDS011;18952;52.516;13.460;2023-02-28T07:29:48;27.67;;;13.73;;
32501;SDS011;18952;52.516;13.460;2023-02-28T07:32:15;35.55;;;14.05;;
32501;SDS011;18952;52.516;13.460;2023-02-28T07:34:42;31.02;;;12.85;;
32501;SDS011;18952;52.516;13.460;2023-02-28T07:37:09;31.27;;;11.48;;
32501;SDS011;18952;52.516;13.460;2023-02-28T07:39:36;24.90;;;10.90;;
32501;SDS011;18952;52.516;13.460;2023-02-28T07:42:06;30.95;;;12.13;;
32501;SDS011;18952;52.516;13.460;2023-02-28T07:44:33;31.00;;;11.82;;
32501;SDS011;18952;52.516;13.460;2023-02-28T07:46:59;27.95;;;11.40;;
32501;SDS011;18952;52.516;13.460;2023-02-28T07:49:26;24.08;;;11.02;;
32501;SDS011;18952;52.516;13.460;2023-02-28T07:51:53;28.38;;;11.60;;
32501;SDS011;18952;52.516;13.460;2023-02-28T07:54:20;28.08;;;12.52;;
32501;SDS011;18952;52.516;13.460;2023-02-28T07:56:47;33.10;;;11.82;;
32501;SDS011;18952;52.516;13.460;2023-02-28T07:59:13;28.63;;;11.52;;
32501;SDS011;18952;52.516;13.460;2023-02-28T08:01:40;25.13;;;11.15;;
32501;SDS011;18952;52.516;13.460;2023-02-28T08:04:07;21.85;;;10.05;;
32501;SDS011;18952;52.516;13.460;2023-02-28T08:06:34;27.30;;;10.35;;
32501;SDS011;18952;52.516;13.460;2023-02-28T08:09:00;22.85;;;10.13;;
32501;SDS011;18952;52.516;13.460;2023-02-28T08:11:27;20.60;;;10.32;;
32501;SDS011;18952;52.516;13.460;2023-02-28T08:13:55;21.33;;;8.98;;
32501;SDS011;18952;52.516;13.460;2023-02-28T08:16:24;21.90;;;8.48;;
32501;SDS011;18952;52.516;13.460;2023-02-28T08:18:51;14.13;;;5.80;;
32501;SDS011;18952;52.516;13.460;2023-02-28T08:21:19;18.58;;;6.10;;
32501;SDS011;18952;52.516;13.460;2023-02-28T08:23:47;17.20;;;5.90;;
32501;SDS011;18952;52.516;13.460;2023-02-28T08:26:16;16.42;;;6.00;;
32501;SDS011;18952;52.516;13.460;2023-02-28T08:28:43;11.88;;;5.30;;
32501;SDS011;18952;52.516;13.460;2023-02-28T08:31:11;17.75;;;5.55;;
32501;SDS011;18952;52.516;13.460;2023-02-28T08:33:40;11.20;;;5.03;;
32501;SDS011;18952;52.516;13.460;2023-02-28T08:36:08;13.75;;;4.53;;
32501;SDS011;18952;52.516;13.460;2023-02-28T08:38:36;11.40;;;5.20;;
32501;SDS011;18952;52.516;13.460;2023-02-28T08:41:04;12.38;;;4.93;;
32501;SDS011;18952;52.516;13.460;2023-02-28T08:43:33;11.15;;;5.32;;
32501;SDS011;18952;52.516;13.460;2023-02-28T08:46:01;9.23;;;4.40;;
32501;SDS011;18952;52.516;13.460;2023-02-28T08:48:29;10.05;;;4.03;;
32501;SDS011;18952;52.516;13.460;2023-02-28T08:50:58;11.65;;;4.28;;
32501;SDS011;18952;52.516;13.460;2023-02-28T08:53:37;8.77;;;4.20;;
32501;SDS011;18952;52.516;13.460;2023-02-28T08:56:06;5.25;;;3.42;;
32501;SDS011;18952;52.516;13.460;2023-02-28T08:58:40;9.10;;;3.35;;
32501;SDS011;18952;52.516;13.460;2023-02-28T09:01:08;6.80;;;3.63;;
32501;SDS011;18952;52.516;13.460;2023-02-28T09:03:39;7.65;;;3.42;;
32501;SDS011;18952;52.516;13.460;2023-02-28T09:06:06;8.63;;;3.17;;
32501;SDS011;18952;52.516;13.460;2023-02-28T09:08:33;10.60;;;3.08;;
32501;SDS011;18952;52.516;13.460;2023-02-28T09:11:03;5.88;;;3.55;;
32501;SDS011;18952;52.516;13.460;2023-02-28T09:13:31;10.63;;;4.20;;
32501;SDS011;18952;52.516;13.460;2023-02-28T09:15:59;10.40;;;4.20;;
32501;SDS011;18952;52.516;13.460;2023-02-28T09:18:30;9.00;;;3.53;;
32501;SDS011;18952;52.516;13.460;2023-02-28T09:20:57;10.98;;;3.70;;
32501;SDS011;18952;52.516;13.460;2023-02-28T09:23:24;6.72;;;3.67;;
32501;SDS011;18952;52.516;13.460;2023-02-28T09:25:52;5.53;;;2.95;;
32501;SDS011;18952;52.516;13.460;2023-02-28T09:28:21;8.63;;;3.55;;
32501;SDS011;18952;52.516;13.460;2023-02-28T09:30:49;9.07;;;3.50;;
32501;SDS011;18952;52.516;13.460;2023-02-28T09:33:18;10.73;;;4.38;;
32501;SDS011;18952;52.516;13.460;2023-02-28T09:35:46;9.07;;;3.90;;
32501;SDS011;18952;52.516;13.460;2023-02-28T09:38:14;8.93;;;4.25;;
32501;SDS011;18952;52.516;13.460;2023-02-28T09:40:49;7.57;;;3.53;;
32501;SDS011;18952;52.516;13.460;2023-02-28T09:43:18;11.63;;;3.78;;
32501;SDS011;18952;52.516;13.460;2023-02-28T09:45:55;8.88;;;3.60;;
32501;SDS011;18952;52.516;13.460;2023-02-28T09:48:28;9.88;;;4.40;;
32501;SDS011;18952;52.516;13.460;2023-02-28T09:51:04;7.80;;;3.78;;
32501;SDS011;18952;52.516;13.460;2023-02-28T09:53:37;12.40;;;3.33;;
32501;SDS011;18952;52.516;13.460;2023-02-28T10:07:05;7.07;;;3.30;;
32501;SDS011;18952;52.516;13.460;2023-02-28T10:09:45;7.45;;;3.80;;
32501;SDS011;18952;52.516;13.460;2023-02-28T10:12:17;4.43;;;2.95;;
32501;SDS011;18952;52.516;13.460;2023-02-28T10:14:45;8.32;;;3.42;;
32501;SDS011;18952;52.516;13.460;2023-02-28T10:17:22;7.20;;;3.42;;
32501;SDS011;18952;52.516;13.460;2023-02-28T10:19:58;6.35;;;3.90;;
32501;SDS011;18952;52.516;13.460;2023-02-28T10:22:42;8.50;;;3.28;;
32501;SDS011;18952;52.516;13.460;2023-02-28T10:25:26;7.40;;;3.72;;
32501;SDS011;18952;52.516;13.460;2023-02-28T10:28:00;12.70;;;3.85;;
32501;SDS011;18952;52.516;13.460;2023-02-28T10:30:31;6.50;;;3.70;;
32501;SDS011;18952;52.516;13.460;2023-02-28T10:32:58;6.55;;;3.30;;
32501;SDS011;18952;52.516;13.460;2023-02-28T10:35:25;7.72;;;4.00;;
32501;SDS011;18952;52.516;13.460;2023-02-28T10:37:54;7.65;;;3.72;;
32501;SDS011;18952;52.516;13.460;2023-02-28T10:45:34;10.13;;;3.47;;
32501;SDS011;18952;52.516;13.460;2023-02-28T10:58:27;8.30;;;3.28;;
32501;SDS011;18952;52.516;13.460;2023-02-28T11:01:10;9.27;;;3.70;;
32501;SDS011;18952;52.516;13.460;2023-02-28T11:03:43;8.07;;;3.63;;
32501;SDS011;18952;52.516;13.460;2023-02-28T11:06:15;6.78;;;3.60;;
32501;SDS011;18952;52.516;13.460;2023-02-28T11:08:49;9.85;;;3.85;;
32501;SDS011;18952;52.516;13.460;2023-02-28T11:11:20;5.90;;;3.60;;
32501;SDS011;18952;52.516;13.460;2023-02-28T11:13:50;9.80;;;4.50;;
32501;SDS011;18952;52.516;13.460;2023-02-28T11:16:30;10.10;;;3.67;;
32501;SDS011;18952;52.516;13.460;2023-02-28T11:19:03;8.43;;;3.72;;
32501;SDS011;18952;52.516;13.460;2023-02-28T11:21:45;9.85;;;3.95;;
32501;SDS011;18952;52.516;13.460;2023-02-28T11:24:23;8.38;;;3.92;;
32501;SDS011;18952;52.516;13.460;2023-02-28T11:26:59;5.38;;;3.40;;
32501;SDS011;18952;52.516;13.460;2023-02-28T11:29:30;13.02;;;4.32;;
32501;SDS011;18952;52.516;13.460;2023-02-28T11:35:14;8.27;;;4.32;;
32501;SDS011;18952;52.516;13.460;2023-02-28T11:37:45;7.60;;;4.30;;
32501;SDS011;18952;52.516;13.460;2023-02-28T11:40:15;9.65;;;4.07;;
32501;SDS011;18952;52.516;13.460;2023-02-28T11:51:47;9.40;;;5.32;;
32501;SDS011;18952;52.516;13.460;2023-02-28T11:54:27;9.35;;;4.93;;
32501;SDS011;18952;52.516;13.460;2023-02-28T12:03:19;14.00;;;4.50;;
32501;SDS011;18952;52.516;13.460;2023-02-28T12:08:55;8.70;;;4.57;;
32501;SDS011;18952;52.516;13.460;2023-02-28T12:11:53;8.35;;;4.57;;
32501;SDS011;18952;52.516;13.460;2023-02-28T12:27:35;5.82;;;3.75;;
32501;SDS011;18952;52.516;13.460;2023-02-28T12:32:49;7.90;;;3.97;;
32501;SDS011;18952;52.516;13.460;2023-02-28T12:35:32;8.68;;;3.97;;
32501;SDS011;18952;52.516;13.460;2023-02-28T12:38:19;10.32;;;3.92;;
32501;SDS011;18952;52.516;13.460;2023-02-28T12:43:50;7.53;;;3.95;;
32501;SDS011;18952;52.516;13.460;2023-02-28T12:46:34;10.13;;;4.05;;
32501;SDS011;18952;52.516;13.460;2023-02-28T12:49:07;10.70;;;5.78;;
32501;SDS011;18952;52.516;13.460;2023-02-28T12:57:25;10.60;;;4.95;;
32501;SDS011;18952;52.516;13.460;2023-02-28T13:00:04;6.97;;;3.78;;
32501;SDS011;18952;52.516;13.460;2023-02-28T13:14:24;6.20;;;3.70;;
32501;SDS011;18952;52.516;13.460;2023-02-28T13:28:11;12.90;;;5.53;;
32501;SDS011;18952;52.516;13.460;2023-02-28T13:38:44;14.90;;;4.37;;
32501;SDS011;18952;52.516;13.460;2023-02-28T13:44:02;12.57;;;5.03;;
32501;SDS011;18952;52.516;13.460;2023-02-28T13:46:29;6.10;;;3.67;;
32501;SDS011;18952;52.516;13.460;2023-02-28T13:51:52;12.90;;;4.13;;
32501;SDS011;18952;52.516;13.460;2023-02-28T13:54:49;7.35;;;4.20;;
32501;SDS011;18952;52.516;13.460;2023-02-28T14:00:25;6.47;;;3.70;;
32501;SDS011;18952;52.516;13.460;2023-02-28T14:05:41;7.60;;;4.35;;
32501;SDS011;18952;52.516;13.460;2023-02-28T14:08:16;8.30;;;4.20;;
32501;SDS011;18952;52.516;13.460;2023-02-28T14:10:49;9.35;;;4.20;;
32501;SDS011;18952;52.516;13.460;2023-02-28T14:16:13;5.35;;;4.13;;
32501;SDS011;18952;52.516;13.460;2023-02-28T14:25:09;6.53;;;4.25;;
32501;SDS011;18952;52.516;13.460;2023-02-28T14:35:54;9.73;;;4.65;;
32501;SDS011;18952;52.516;13.460;2023-02-28T14:41:19;10.63;;;5.22;;
32501;SDS011;18952;52.516;13.460;2023-02-28T14:43:54;7.55;;;5.78;;
32501;SDS011;18952;52.516;13.460;2023-02-28T14:46:26;7.03;;;4.00;;
32501;SDS011;18952;52.516;13.460;2023-02-28T14:49:03;7.50;;;4.07;;
32501;SDS011;18952;52.516;13.460;2023-02-28T14:51:31;10.55;;;4.75;;
32501;SDS011;18952;52.516;13.460;2023-02-28T14:53:59;6.70;;;4.22;;
32501;SDS011;18952;52.516;13.460;2023-02-28T14:56:35;5.80;;;5.05;;
32501;SDS011;18952;52.516;13.460;2023-02-28T14:59:05;7.43;;;4.53;;
32501;SDS011;18952;52.516;13.460;2023-02-28T15:01:47;7.18;;;4.70;;
32501;SDS011;18952;52.516;13.460;2023-02-28T15:04:22;7.28;;;4.95;;
32501;SDS011;18952;52.516;13.460;2023-02-28T15:07:09;8.85;;;4.82;;
32501;SDS011;18952;52.516;13.460;2023-02-28T15:09:37;7.78;;;5.45;;
32501;SDS011;18952;52.516;13.460;2023-02-28T15:12:03;8.00;;;5.90;;
32501;SDS011;18952;52.516;13.460;2023-02-28T15:14:31;9.77;;;4.90;;
32501;SDS011;18952;52.516;13.460;2023-02-28T15:17:02;9.35;;;4.88;;
32501;SDS011;18952;52.516;13.460;2023-02-28T15:19:36;8.80;;;4.80;;
32501;SDS011;18952;52.516;13.460;2023-02-28T15:22:10;8.02;;;5.80;;
32501;SDS011;18952;52.516;13.460;2023-02-28T15:27:20;13.20;;;5.00;;
32501;SDS011;18952;52.516;13.460;2023-02-28T15:29:53;6.43;;;4.10;;
32501;SDS011;18952;52.516;13.460;2023-02-28T15:34:58;8.13;;;4.95;;
32501;SDS011;18952;52.516;13.460;2023-02-28T15:37:47;9.48;;;5.15;;
32501;SDS011;18952;52.516;13.460;2023-02-28T15:45:39;10.52;;;4.68;;
32501;SDS011;18952;52.516;13.460;2023-02-28T15:48:13;10.07;;;5.18;;
32501;SDS011;18952;52.516;13.460;2023-02-28T15:53:58;18.55;;;6.85;;
32501;SDS011;18952;52.516;13.460;2023-02-28T15:56:31;7.63;;;6.03;;
32501;SDS011;18952;52.516;13.460;2023-02-28T15:59:18;9.98;;;5.65;;
32501;SDS011;18952;52.516;13.460;2023-02-28T16:02:29;9.70;;;5.68;;
32501;SDS011;18952;52.516;13.460;2023-02-28T16:05:40;11.95;;;5.32;;
32501;SDS011;18952;52.516;13.460;2023-02-28T16:07:55;9.15;;;5.93;;
32501;SDS011;18952;52.516;13.460;2023-02-28T16:10:28;7.63;;;4.90;;
32501;SDS011;18952;52.516;13.460;2023-02-28T16:12:56;8.13;;;5.75;;
32501;SDS011;18952;52.516;13.460;2023-02-28T16:15:24;8.05;;;5.55;;
32501;SDS011;18952;52.516;13.460;2023-02-28T16:17:57;6.95;;;5.07;;
32501;SDS011;18952;52.516;13.460;2023-02-28T16:20:28;7.70;;;5.35;;
32501;SDS011;18952;52.516;13.460;2023-02-28T16:22:56;12.00;;;5.50;;
32501;SDS011;18952;52.516;13.460;2023-02-28T16:25:25;8.95;;;5.03;;
32501;SDS011;18952;52.516;13.460;2023-02-28T16:28:04;9.52;;;5.15;;
32501;SDS011;18952;52.516;13.460;2023-02-28T16:30:38;10.13;;;5.72;;
32501;SDS011;18952;52.516;13.460;2023-02-28T16:33:07;8.70;;;5.82;;
32501;SDS011;18952;52.516;13.460;2023-02-28T16:35:34;12.18;;;6.15;;
32501;SDS011;18952;52.516;13.460;2023-02-28T16:38:02;10.27;;;5.70;;
32501;SDS011;18952;52.516;13.460;2023-02-28T16:40:29;7.70;;;5.40;;
32501;SDS011;18952;52.516;13.460;2023-02-28T16:43:00;11.00;;;5.78;;
32501;SDS011;18952;52.516;13.460;2023-02-28T16:45:33;11.50;;;6.25;;
32501;SDS011;18952;52.516;13.460;2023-02-28T16:48:00;10.75;;;5.90;;
32501;SDS011;18952;52.516;13.460;2023-02-28T16:50:28;12.63;;;6.10;;
32501;SDS011;18952;52.516;13.460;2023-02-28T16:52:56;11.27;;;6.50;;
32501;SDS011;18952;52.516;13.460;2023-02-28T16:55:24;10.20;;;6.65;;
32501;SDS011;18952;52.516;13.460;2023-02-28T16:57:53;18.38;;;6.28;;
32501;SDS011;18952;52.516;13.460;2023-02-28T17:00:22;12.02;;;7.10;;
32501;SDS011;18952;52.516;13.460;2023-02-28T17:02:50;11.85;;;6.70;;
32501;SDS011;18952;52.516;13.460;2023-02-28T17:05:17;13.23;;;7.40;;
32501;SDS011;18952;52.516;13.460;2023-02-28T17:07:45;16.35;;;7.70;;
32501;SDS011;18952;52.516;13.460;2023-02-28T17:10:22;15.38;;;7.40;;
32501;SDS011;18952;52.516;13.460;2023-02-28T17:12:51;14.00;;;6.95;;
32501;SDS011;18952;52.516;13.460;2023-02-28T17:15:21;14.55;;;7.20;;
32501;SDS011;18952;52.516;13.460;2023-02-28T17:17:48;12.98;;;7.57;;
32501;SDS011;18952;52.516;13.460;2023-02-28T17:20:17;18.30;;;7.95;;
32501;SDS011;18952;52.516;13.460;2023-02-28T17:22:45;19.77;;;10.27;;
32501;SDS011;18952;52.516;13.460;2023-02-28T17:25:12;17.30;;;8.77;;
32501;SDS011;18952;52.516;13.460;2023-02-28T17:27:39;15.07;;;8.60;;
32501;SDS011;18952;52.516;13.460;2023-02-28T17:30:25;19.75;;;8.90;;
32501;SDS011;18952;52.516;13.460;2023-02-28T17:32:54;16.30;;;7.97;;
32501;SDS011;18952;52.516;13.460;2023-02-28T17:35:22;17.10;;;8.85;;
32501;SDS011;18952;52.516;13.460;2023-02-28T17:37:49;15.18;;;8.15;;
32501;SDS011;18952;52.516;13.460;2023-02-28T17:40:18;11.82;;;8.73;;
32501;SDS011;18952;52.516;13.460;2023-02-28T17:42:46;13.15;;;7.95;;
32501;SDS011;18952;52.516;13.460;2023-02-28T17:45:14;16.38;;;8.80;;
32501;SDS011;18952;52.516;13.460;2023-02-28T17:47:42;15.57;;;8.20;;
32501;SDS011;18952;52.516;13.460;2023-02-28T17:50:15;16.17;;;8.85;;
32501;SDS011;18952;52.516;13.460;2023-02-28T17:52:45;18.05;;;9.75;;